Time;durP1;ratioP1;P1;durP2;ratioP2;P2;SDS_P1;SDS_P2;PMS_P1;PMS_P2;Temp;Humidity;BMP_temperature;BMP_pressure;BME280_temperature;BME280_humidity;BME280_pressure;Samples;Min_cycle;Max_cycle;Signal;HPM_P1;HPM_P2
2022/08/11 00:01:16;;;;;;;7.82;4.85;;;;;;;;;;10106653;28;20101;-70
2022/08/11 00:06:14;;;;;;;4.57;4.13;;;;;;;;;;10108443;28;20105;-69
2022/08/11 00:11:11;;;;;;;6.38;4.38;;;;;;;;;;10115404;28;20054;-70
2022/08/11 00:16:12;;;;;;;7.60;4.22;;;;;;;;;;10108593;28;20101;-70
2022/08/11 00:21:10;;;;;;;7.88;4.38;;;;;;;;;;10110131;28;20465;-70
2022/08/11 00:26:07;;;;;;;5.93;4.30;;;;;;;;;;10111424;28;20117;-69
2022/08/11 00:31:04;;;;;;;4.45;4.00;;;;;;;;;;10105447;28;20071;-69
2022/08/11 00:36:02;;;;;;;5.07;4.07;;;;;;;;;;10100008;28;20154;-68
2022/08/11 00:41:27;;;;;;;5.72;4.05;;;;;;;;;;10099357;28;20090;-69
2022/08/11 00:46:23;;;;;;;7.13;4.00;;;;;;;;;;10092549;28;20070;-69
2022/08/11 00:51:32;;;;;;;6.05;4.18;;;;;;;;;;10081057;28;20047;-70
2022/08/11 00:57:14;;;;;;;4.65;4.00;;;;;;;;;;10102281;28;20057;-70
2022/08/11 01:02:49;;;;;;;6.10;4.40;;;;;;;;;;10108724;28;20251;-69
2022/08/11 01:07:45;;;;;;;6.00;4.25;;;;;;;;;;10110370;28;20556;-69
2022/08/11 01:13:24;;;;;;;5.47;4.03;;;;;;;;;;10107550;28;20109;-71
2022/08/11 01:18:23;;;;;;;8.53;3.93;;;;;;;;;;10098504;28;20130;-71
2022/08/11 01:23:27;;;;;;;5.97;3.80;;;;;;;;;;10107386;28;20472;-69
2022/08/11 01:28:43;;;;;;;8.52;3.83;;;;;;;;;;10100701;28;20394;-69
2022/08/11 01:33:45;;;;;;;5.53;3.88;;;;;;;;;;10075887;28;20051;-69
2022/08/11 01:38:57;;;;;;;6.85;4.00;;;;;;;;;;10100096;28;20098;-70
2022/08/11 01:49:24;;;;;;;5.57;4.40;;;;;;;;;;10090357;28;20520;-70
2022/08/11 01:54:48;;;;;;;5.82;3.92;;;;;;;;;;10095222;28;20054;-69
2022/08/11 01:59:50;;;;;;;8.27;3.80;;;;;;;;;;10102661;28;20167;-69
2022/08/11 02:05:01;;;;;;;4.95;3.67;;;;;;;;;;10107215;28;20047;-70
2022/08/11 02:15:37;;;;;;;7.05;3.80;;;;;;;;;;10103866;28;20054;-69
2022/08/11 02:25:58;;;;;;;5.40;4.00;;;;;;;;;;10103696;28;20059;-69
2022/08/11 02:36:40;;;;;;;6.95;4.40;;;;;;;;;;10093302;28;20045;-68
2022/08/11 02:47:00;;;;;;;6.82;4.70;;;;;;;;;;10120987;28;20097;-69
2022/08/11 02:52:17;;;;;;;11.88;4.45;;;;;;;;;;10104649;28;20073;-69
2022/08/11 02:57:33;;;;;;;5.93;4.50;;;;;;;;;;10092894;28;20158;-69
2022/08/11 03:02:48;;;;;;;7.32;4.80;;;;;;;;;;10113644;28;20522;-69
2022/08/11 03:08:00;;;;;;;5.50;4.47;;;;;;;;;;10111133;28;20058;-70
2022/08/11 03:18:36;;;;;;;7.13;4.45;;;;;;;;;;10108023;28;20178;-69
2022/08/11 03:23:38;;;;;;;8.23;4.80;;;;;;;;;;10113252;28;20069;-68
2022/08/11 03:28:50;;;;;;;5.90;4.70;;;;;;;;;;10076862;28;20126;-70
2022/08/11 03:34:01;;;;;;;6.23;4.73;;;;;;;;;;10071446;28;20484;-69
2022/08/11 03:39:02;;;;;;;7.63;5.00;;;;;;;;;;10100163;28;20406;-69
2022/08/11 03:43:58;;;;;;;5.50;5.00;;;;;;;;;;10102061;28;20043;-69
2022/08/11 03:49:18;;;;;;;5.57;4.70;;;;;;;;;;10107886;28;20035;-70
2022/08/11 03:54:28;;;;;;;6.25;4.90;;;;;;;;;;10094762;28;20046;-69
2022/08/11 03:59:36;;;;;;;8.18;5.07;;;;;;;;;;10109491;28;20473;-69
2022/08/11 04:04:34;;;;;;;5.93;5.32;;;;;;;;;;10096690;28;20069;-70
2022/08/11 04:09:40;;;;;;;6.43;5.13;;;;;;;;;;10108073;28;20059;-70
2022/08/11 04:20:22;;;;;;;5.72;5.13;;;;;;;;;;10077571;28;20078;-69
2022/08/11 04:25:33;;;;;;;6.32;5.45;;;;;;;;;;10114272;28;20116;-68
2022/08/11 04:30:57;;;;;;;7.15;5.03;;;;;;;;;;10106640;28;20046;-68
2022/08/11 04:35:57;;;;;;;6.57;5.22;;;;;;;;;;10112351;28;20106;-69
2022/08/11 04:41:13;;;;;;;7.05;5.30;;;;;;;;;;10106451;28;20043;-69
2022/08/11 04:46:17;;;;;;;5.30;4.80;;;;;;;;;;10113785;28;20109;-68
2022/08/11 05:02:30;;;;;;;9.32;6.35;;;;;;;;;;10111718;28;20483;-69
2022/08/11 05:07:47;;;;;;;6.30;5.70;;;;;;;;;;10100290;28;20500;-69
2022/08/11 05:12:46;;;;;;;6.85;5.45;;;;;;;;;;10090178;28;20480;-68
2022/08/11 06:00:27;;;;;;;7.82;6.20;;;;;;;;;;10087708;28;20102;-69
2022/08/11 06:05:24;;;;;;;6.28;5.38;;;;;;;;;;10054859;28;20089;-69
2022/08/11 06:10:32;;;;;;;6.75;6.15;;;;;;;;;;10047898;28;20052;-69
2022/08/11 06:15:30;;;;;;;7.40;5.78;;;;;;;;;;10080652;28;20059;-71
2022/08/11 06:20:31;;;;;;;7.22;5.65;;;;;;;;;;10088951;28;20443;-71
2022/08/11 06:25:34;;;;;;;8.63;5.95;;;;;;;;;;10096631;28;20117;-71
2022/08/11 06:30:38;;;;;;;6.85;6.15;;;;;;;;;;10082455;28;20051;-71
2022/08/11 06:35:45;;;;;;;6.55;5.78;;;;;;;;;;10099745;28;20073;-71
2022/08/11 06:46:09;;;;;;;6.63;6.03;;;;;;;;;;10091825;28;20097;-71
2022/08/11 06:51:12;;;;;;;6.30;5.70;;;;;;;;;;10085605;28;20118;-70
2022/08/11 07:01:53;;;;;;;8.68;6.63;;;;;;;;;;10086019;28;20059;-70
2022/08/11 07:15:40;;;;;;;7.90;7.20;;;;;;;;;;10085847;28;20043;-70
2022/08/11 07:28:53;;;;;;;7.35;6.65;;;;;;;;;;10082762;28;20505;-70
2022/08/11 07:33:47;;;;;;;8.82;7.80;;;;;;;;;;10089238;28;20066;-70
2022/08/11 07:39:06;;;;;;;8.73;7.82;;;;;;;;;;10100263;28;20039;-70
2022/08/11 07:44:08;;;;;;;9.07;8.27;;;;;;;;;;10099512;28;20054;-70
2022/08/11 07:54:29;;;;;;;9.10;8.20;;;;;;;;;;10108651;28;20047;-70
2022/08/11 08:21:10;;;;;;;9.52;7.80;;;;;;;;;;10095904;28;20042;-70
2022/08/11 08:31:35;;;;;;;8.65;7.88;;;;;;;;;;10082508;28;20506;-70
2022/08/11 08:36:36;;;;;;;8.55;7.85;;;;;;;;;;10060972;28;20417;-71
2022/08/11 08:41:37;;;;;;;8.80;7.97;;;;;;;;;;10062095;28;20043;-69
2022/08/11 08:46:50;;;;;;;8.88;8.07;;;;;;;;;;10086244;28;20065;-70
2022/08/11 08:51:50;;;;;;;9.10;8.40;;;;;;;;;;10095015;28;20146;-70
2022/08/11 08:56:57;;;;;;;8.57;7.78;;;;;;;;;;10086366;28;20504;-71
2022/08/11 09:02:00;;;;;;;9.38;8.48;;;;;;;;;;10092432;28;20116;-70
2022/08/11 09:07:05;;;;;;;9.93;8.50;;;;;;;;;;10092364;28;20087;-70
2022/08/11 09:12:08;;;;;;;10.43;8.95;;;;;;;;;;10098119;28;20110;-71
2022/08/11 09:17:11;;;;;;;9.32;8.50;;;;;;;;;;10101932;28;20067;-71
2022/08/11 09:27:25;;;;;;;9.30;8.52;;;;;;;;;;10093320;28;20138;-71
2022/08/11 09:32:32;;;;;;;9.43;8.30;;;;;;;;;;10114880;28;20057;-71
2022/08/11 09:48:12;;;;;;;8.48;7.82;;;;;;;;;;10083628;28;20085;-70
2022/08/11 09:53:11;;;;;;;8.55;7.95;;;;;;;;;;10103515;28;20042;-70
2022/08/11 09:58:27;;;;;;;9.00;8.30;;;;;;;;;;10097088;28;20145;-70
2022/08/11 10:03:40;;;;;;;9.50;8.60;;;;;;;;;;10098556;28;20077;-70
2022/08/11 10:08:37;;;;;;;8.93;8.07;;;;;;;;;;10104271;28;20479;-70
2022/08/11 10:15:32;;;;;;;9.43;8.50;;;;;;;;;;10103600;28;20117;-70
2022/08/11 10:19:13;;;;;;;9.55;8.75;;;;;;;;;;10081314;28;20401;-69
2022/08/11 10:34:50;;;;;;;9.20;8.50;;;;;;;;;;10083331;28;20183;-70
2022/08/11 10:39:55;;;;;;;9.35;8.65;;;;;;;;;;10079584;28;20043;-70
2022/08/11 10:44:52;;;;;;;9.82;9.13;;;;;;;;;;10091540;28;20420;-68
2022/08/11 10:51:12;;;;;;;9.70;8.95;;;;;;;;;;10101592;28;20089;-69
2022/08/11 11:00:22;;;;;;;9.40;8.70;;;;;;;;;;10095806;28;20469;-69
2022/08/11 11:05:27;;;;;;;10.13;9.40;;;;;;;;;;10104215;28;20086;-68
2022/08/11 11:10:24;;;;;;;9.45;8.75;;;;;;;;;;10092504;28;20051;-68
2022/08/11 11:20:41;;;;;;;10.38;9.35;;;;;;;;;;10089050;28;20051;-68
2022/08/11 11:26:05;;;;;;;9.40;8.80;;;;;;;;;;10093397;28;20069;-68
2022/08/11 11:31:09;;;;;;;9.90;9.20;;;;;;;;;;10098639;28;20054;-68
2022/08/11 11:36:17;;;;;;;8.85;8.13;;;;;;;;;;10099442;28;20062;-68
2022/08/11 11:41:25;;;;;;;9.60;9.00;;;;;;;;;;10106535;28;20555;-68
2022/08/11 11:46:23;;;;;;;9.45;8.80;;;;;;;;;;10096050;28;20101;-69
2022/08/11 11:51:26;;;;;;;9.65;8.93;;;;;;;;;;10102577;28;20058;-69
2022/08/11 11:56:23;;;;;;;9.40;8.65;;;;;;;;;;10100429;28;20117;-69
2022/08/11 12:01:23;;;;;;;9.38;8.77;;;;;;;;;;10110078;28;20074;-70
2022/08/11 12:06:22;;;;;;;9.13;8.43;;;;;;;;;;10091826;28;20117;-70
2022/08/11 12:16:35;;;;;;;9.50;8.82;;;;;;;;;;10109340;28;20042;-69
2022/08/11 12:21:33;;;;;;;9.55;8.75;;;;;;;;;;10105160;28;20462;-69
2022/08/11 12:32:05;;;;;;;9.32;8.52;;;;;;;;;;10108330;28;20129;-69
2022/08/11 12:37:04;;;;;;;9.27;8.68;;;;;;;;;;10112544;28;20548;-69
2022/08/11 12:47:16;;;;;;;9.65;8.98;;;;;;;;;;10112586;28;20149;-69
2022/08/11 12:52:17;;;;;;;9.00;8.40;;;;;;;;;;10094881;28;20085;-69
2022/08/11 13:07:48;;;;;;;10.02;9.23;;;;;;;;;;10079330;28;20576;-69
2022/08/11 13:12:46;;;;;;;8.57;7.97;;;;;;;;;;10079508;28;20103;-69
2022/08/11 13:17:43;;;;;;;9.00;8.40;;;;;;;;;;10091684;28;20047;-68
2022/08/11 13:22:44;;;;;;;8.95;8.35;;;;;;;;;;10087447;28;20323;-69
2022/08/11 13:27:41;;;;;;;9.35;8.60;;;;;;;;;;10080740;28;20051;-69
2022/08/11 13:32:39;;;;;;;8.88;8.18;;;;;;;;;;10082279;28;21159;-69
2022/08/11 13:37:37;;;;;;;10.05;9.25;;;;;;;;;;10078584;28;20527;-69
2022/08/11 13:42:57;;;;;;;8.90;8.15;;;;;;;;;;10096000;28;20169;-71
2022/08/11 13:47:55;;;;;;;8.50;7.93;;;;;;;;;;10094735;28;20133;-68
2022/08/11 13:52:51;;;;;;;9.07;8.38;;;;;;;;;;10085011;28;20122;-70
2022/08/11 13:57:51;;;;;;;8.40;7.70;;;;;;;;;;10087685;28;20125;-68
2022/08/11 14:03:08;;;;;;;9.77;8.95;;;;;;;;;;10096291;28;20055;-68
2022/08/11 14:08:08;;;;;;;8.98;8.38;;;;;;;;;;10093814;28;20114;-68
2022/08/11 14:13:36;;;;;;;9.20;8.40;;;;;;;;;;10090808;28;20050;-68
2022/08/11 14:18:42;;;;;;;8.57;7.97;;;;;;;;;;10098280;28;20100;-68
2022/08/11 14:23:39;;;;;;;9.40;8.70;;;;;;;;;;10086627;28;20137;-67
2022/08/11 14:28:37;;;;;;;8.63;8.05;;;;;;;;;;10107041;28;20062;-68
2022/08/11 14:33:40;;;;;;;9.07;8.27;;;;;;;;;;10102898;28;20043;-68
2022/08/11 14:38:57;;;;;;;9.38;8.65;;;;;;;;;;10101729;28;20066;-68
2022/08/11 14:49:11;;;;;;;8.65;8.00;;;;;;;;;;10082401;28;20513;-67
2022/08/11 14:59:23;;;;;;;9.50;8.90;;;;;;;;;;10079629;28;20449;-67
2022/08/11 15:04:20;;;;;;;9.15;8.52;;;;;;;;;;10077821;28;20079;-67
2022/08/11 15:09:32;;;;;;;8.85;8.13;;;;;;;;;;10075654;28;20054;-68
2022/08/11 15:25:08;;;;;;;8.70;8.10;;;;;;;;;;10085723;28;20414;-68
2022/08/11 15:46:02;;;;;;;8.52;7.70;;;;;;;;;;10070861;28;20118;-67
2022/08/11 15:51:08;;;;;;;9.13;8.43;;;;;;;;;;10078786;28;20671;-67
2022/08/11 15:56:05;;;;;;;9.10;8.40;;;;;;;;;;10078039;28;20055;-67
2022/08/11 16:06:18;;;;;;;8.35;7.55;;;;;;;;;;10097295;28;20046;-69
2022/08/11 16:11:18;;;;;;;8.10;7.40;;;;;;;;;;10085556;28;20043;-68
2022/08/11 16:16:15;;;;;;;10.50;7.40;;;;;;;;;;10084504;28;20124;-69
2022/08/11 16:21:15;;;;;;;8.45;7.75;;;;;;;;;;10098719;28;20063;-69
2022/08/11 16:26:31;;;;;;;9.02;8.13;;;;;;;;;;10096767;28;20066;-68
2022/08/11 16:32:15;;;;;;;10.02;8.70;;;;;;;;;;10094307;28;20054;-68
2022/08/11 16:47:54;;;;;;;9.35;8.48;;;;;;;;;;10103397;28;20586;-68
2022/08/11 16:53:11;;;;;;;10.00;8.07;;;;;;;;;;10101853;28;20045;-69
2022/08/11 17:14:16;;;;;;;9.80;8.85;;;;;;;;;;10076529;28;20166;-67
2022/08/11 17:19:15;;;;;;;9.05;8.25;;;;;;;;;;10104198;28;20684;-68
2022/08/11 17:24:13;;;;;;;9.90;8.32;;;;;;;;;;10087163;28;20783;-68
2022/08/11 17:29:09;;;;;;;9.73;8.82;;;;;;;;;;10089967;28;20093;-68
2022/08/11 17:39:28;;;;;;;10.85;9.75;;;;;;;;;;10080930;28;20035;-68
2022/08/11 17:49:41;;;;;;;9.40;7.82;;;;;;;;;;10094127;28;20104;-67
2022/08/11 17:59:56;;;;;;;9.27;8.32;;;;;;;;;;10090682;28;20078;-67
2022/08/11 18:04:53;;;;;;;9.05;8.23;;;;;;;;;;10077241;28;20133;-67
